createdAt,value
2023-03-05T00:01:08.010Z,7.39
2023-03-05T00:03:34.834Z,7.42
2023-03-05T00:06:02.010Z,7.33
2023-03-05T00:08:31.213Z,7.36
2023-03-05T00:11:03.060Z,7.32
2023-03-05T00:13:30.043Z,7.31
2023-03-05T00:15:57.188Z,7.31
2023-03-05T00:18:24.335Z,7.34
2023-03-05T00:20:51.407Z,7.32
2023-03-05T00:23:18.208Z,7.31
2023-03-05T00:25:46.646Z,7.29
2023-03-05T00:28:13.484Z,7.34
2023-03-05T00:30:40.782Z,7.32
2023-03-05T00:33:08.049Z,7.30
2023-03-05T00:35:42.338Z,7.29
2023-03-05T00:38:09.472Z,7.27
2023-03-05T00:40:38.065Z,7.28
2023-03-05T00:43:04.968Z,7.27
2023-03-05T00:45:32.094Z,7.27
2023-03-05T00:47:58.835Z,7.29
2023-03-05T00:50:26.251Z,7.28
2023-03-05T00:52:53.035Z,7.22
2023-03-05T00:55:20.199Z,7.23
2023-03-05T00:57:47.042Z,7.32
2023-03-05T01:00:14.410Z,7.28
2023-03-05T01:02:41.319Z,7.27
2023-03-05T01:05:10.857Z,7.24
2023-03-05T01:07:37.668Z,7.31
2023-03-05T01:10:05.246Z,7.22
2023-03-05T01:12:32.039Z,7.24
2023-03-05T01:14:59.148Z,7.28
2023-03-05T01:17:26.698Z,7.20
2023-03-05T01:19:53.767Z,7.19
2023-03-05T01:22:20.547Z,7.23
2023-03-05T01:24:47.668Z,7.20
2023-03-05T01:27:14.450Z,7.15
2023-03-05T01:29:41.541Z,7.18
2023-03-05T01:32:08.355Z,7.15
2023-03-05T01:34:37.382Z,7.20
2023-03-05T01:37:04.186Z,7.16
2023-03-05T01:39:31.319Z,7.19
2023-03-05T01:41:58.107Z,7.13
2023-03-05T01:44:27.650Z,7.15
2023-03-05T01:46:54.456Z,7.13
2023-03-05T01:49:24.161Z,7.11
2023-03-05T01:52:23.586Z,7.10
2023-03-05T01:54:52.299Z,7.09
2023-03-05T01:57:25.151Z,7.11
2023-03-05T01:59:55.755Z,7.11
2023-03-05T02:02:22.602Z,7.13
2023-03-05T02:04:56.228Z,7.08
2023-03-05T02:07:22.999Z,7.11
2023-03-05T02:09:50.204Z,7.06
2023-03-05T02:12:16.982Z,7.05
2023-03-05T02:14:46.202Z,7.06
2023-03-05T02:17:13.196Z,7.05
2023-03-05T02:20:10.959Z,7.06
2023-03-05T02:22:37.836Z,7.10
2023-03-05T02:25:16.132Z,7.05
2023-03-05T02:27:43.475Z,7.04
2023-03-05T02:30:11.194Z,7.06
2023-03-05T02:32:38.114Z,7.03
2023-03-05T02:35:05.624Z,7.02
2023-03-05T02:37:52.487Z,7.05
2023-03-05T02:40:19.564Z,7.02
2023-03-05T02:42:46.812Z,7.05
2023-03-05T02:45:13.901Z,7.05
2023-03-05T02:47:40.768Z,7.01
2023-03-05T02:50:08.480Z,7.01
2023-03-05T02:52:35.312Z,6.99
2023-03-05T02:55:02.428Z,6.99
2023-03-05T02:57:29.205Z,6.97
2023-03-05T02:59:56.304Z,6.99
2023-03-05T03:02:23.157Z,7.02
2023-03-05T03:04:50.300Z,7.01
2023-03-05T03:07:17.071Z,6.96
2023-03-05T03:09:44.213Z,6.98
2023-03-05T03:12:11.315Z,6.97
2023-03-05T03:14:39.630Z,6.93
2023-03-05T03:17:07.383Z,6.99
2023-03-05T03:19:35.465Z,7.00
2023-03-05T03:22:02.385Z,7.00
2023-03-05T03:24:30.347Z,7.02
2023-03-05T03:26:57.281Z,6.98
2023-03-05T03:29:24.600Z,6.95
2023-03-05T03:31:51.391Z,6.98
2023-03-05T03:34:18.669Z,6.94
2023-03-05T03:36:45.592Z,6.92
2023-03-05T03:39:14.083Z,6.90
2023-03-05T03:41:41.875Z,6.87
2023-03-05T03:44:10.686Z,6.86
2023-03-05T03:46:38.329Z,6.87
2023-03-05T03:49:05.926Z,6.87
2023-03-05T03:51:32.793Z,6.89
2023-03-05T03:54:00.236Z,6.86
2023-03-05T03:56:27.149Z,6.82
2023-03-05T03:58:54.356Z,6.83
2023-03-05T04:01:21.491Z,6.85
2023-03-05T04:03:48.608Z,6.85
2023-03-05T04:06:15.447Z,6.83
2023-03-05T04:08:42.610Z,6.88
2023-03-05T04:11:09.389Z,6.85
2023-03-05T04:13:36.502Z,6.82
2023-03-05T04:16:03.329Z,6.84
2023-03-05T04:18:32.464Z,6.85
2023-03-05T04:20:59.358Z,6.81
2023-03-05T04:23:26.466Z,6.81
2023-03-05T04:25:53.266Z,6.78
2023-03-05T04:28:20.384Z,6.77
2023-03-05T04:30:47.243Z,6.82
2023-03-05T04:33:14.402Z,6.75
2023-03-05T04:35:41.172Z,6.78
2023-03-05T04:38:08.305Z,6.81
2023-03-05T04:40:35.251Z,6.83
2023-03-05T04:43:02.569Z,6.82
2023-03-05T04:45:29.433Z,6.77
2023-03-05T04:47:56.482Z,6.83
2023-03-05T04:50:23.375Z,6.75
2023-03-05T04:52:50.503Z,6.77
2023-03-05T04:55:17.734Z,6.74
2023-03-05T04:57:44.786Z,6.72
2023-03-05T05:00:15.976Z,6.72
2023-03-05T05:02:44.403Z,6.73
2023-03-05T05:05:25.612Z,6.71
2023-03-05T05:07:56.803Z,6.71
2023-03-05T05:10:24.655Z,6.73
2023-03-05T05:12:51.751Z,6.70
2023-03-05T05:15:18.634Z,6.66
2023-03-05T05:17:46.019Z,6.66
2023-03-05T05:20:14.293Z,6.69
2023-03-05T05:22:41.544Z,6.68
2023-03-05T05:25:08.705Z,6.69
2023-03-05T05:27:35.980Z,6.70
2023-03-05T05:30:04.120Z,6.68
2023-03-05T05:32:31.177Z,6.68
2023-03-05T05:34:58.325Z,6.68
2023-03-05T05:37:25.777Z,6.68
2023-03-05T05:39:52.655Z,6.67
2023-03-05T05:42:20.621Z,6.65
2023-03-05T05:44:47.679Z,6.66
2023-03-05T05:47:15.694Z,6.69
2023-03-05T05:49:42.523Z,6.64
2023-03-05T05:52:09.744Z,6.63
2023-03-05T05:54:36.564Z,6.63
2023-03-05T05:57:03.774Z,6.64
2023-03-05T05:59:30.515Z,6.64
2023-03-05T06:01:57.628Z,6.61
2023-03-05T06:04:24.392Z,6.61
2023-03-05T06:06:51.434Z,6.61
2023-03-05T06:09:18.257Z,6.59
2023-03-05T06:11:45.400Z,6.60
2023-03-05T06:14:12.422Z,6.61
2023-03-05T06:16:40.100Z,6.62
2023-03-05T06:19:07.023Z,6.62
2023-03-05T06:21:34.100Z,6.59
2023-03-05T06:24:01.090Z,6.61
2023-03-05T06:26:28.153Z,6.58
2023-03-05T06:28:55.094Z,6.61
2023-03-05T06:31:23.437Z,6.61
2023-03-05T06:33:50.341Z,6.62
2023-03-05T06:36:18.737Z,6.56
2023-03-05T06:38:46.947Z,6.66
2023-03-05T06:41:17.420Z,6.64
2023-03-05T06:43:44.874Z,6.62
2023-03-05T06:46:13.571Z,6.62
2023-03-05T06:48:40.359Z,6.64
2023-03-05T06:51:14.263Z,6.68
2023-03-05T06:53:41.219Z,6.64
2023-03-05T06:56:08.434Z,6.63
2023-03-05T06:58:35.228Z,6.66
2023-03-05T07:01:04.406Z,6.68
2023-03-05T07:03:31.196Z,6.67
2023-03-05T07:05:58.276Z,6.64
2023-03-05T07:08:25.004Z,6.60
2023-03-05T07:10:52.091Z,6.59
2023-03-05T07:13:18.863Z,6.62
2023-03-05T07:15:46.039Z,6.63
2023-03-05T07:18:12.812Z,6.63
2023-03-05T07:20:39.915Z,6.67
2023-03-05T07:23:06.673Z,6.65
2023-03-05T07:25:36.041Z,6.59
2023-03-05T07:28:05.415Z,6.63
2023-03-05T07:30:33.643Z,6.69
2023-03-05T07:33:00.454Z,6.64
2023-03-05T07:35:27.502Z,6.77
2023-03-05T07:37:55.858Z,6.71
2023-03-05T07:40:23.052Z,6.74
2023-03-05T07:42:49.813Z,6.78
2023-03-05T07:45:16.904Z,6.79
2023-03-05T07:47:43.701Z,6.72
2023-03-05T07:50:11.310Z,6.77
2023-03-05T07:52:38.140Z,6.73
2023-03-05T07:55:05.462Z,6.72
2023-03-05T07:57:35.500Z,6.74
2023-03-05T08:00:02.590Z,6.75
2023-03-05T08:02:29.789Z,6.76
2023-03-05T08:04:56.973Z,6.76
2023-03-05T08:07:23.718Z,6.77
2023-03-05T08:09:50.830Z,6.83
2023-03-05T08:12:17.680Z,6.80
2023-03-05T08:14:44.815Z,6.85
2023-03-05T08:17:11.613Z,6.87
2023-03-05T08:19:38.771Z,6.85
2023-03-05T08:22:05.640Z,6.84
2023-03-05T08:24:32.696Z,6.84
2023-03-05T08:26:59.549Z,6.86
2023-03-05T08:29:26.876Z,6.88
2023-03-05T08:31:54.072Z,7.00
2023-03-05T08:34:21.380Z,7.05
2023-03-05T08:36:48.937Z,7.04
2023-03-05T08:39:16.508Z,7.03
2023-03-05T08:41:43.306Z,7.07
2023-03-05T08:44:10.411Z,7.13
2023-03-05T08:46:39.522Z,7.20
2023-03-05T08:49:07.469Z,7.10
2023-03-05T08:51:34.822Z,7.20
2023-03-05T08:54:02.537Z,7.20
2023-03-05T08:56:31.423Z,7.22
2023-03-05T08:58:58.507Z,7.18
2023-03-05T09:01:25.325Z,7.23
2023-03-05T09:03:52.472Z,7.18
2023-03-05T09:06:19.200Z,7.27
2023-03-05T09:08:46.266Z,7.20
2023-03-05T09:11:13.179Z,7.20
2023-03-05T09:13:40.346Z,7.19
2023-03-05T09:16:09.106Z,7.33
2023-03-05T09:18:40.232Z,7.33
2023-03-05T09:21:16.982Z,7.32
2023-03-05T09:23:44.378Z,7.31
2023-03-05T09:26:12.263Z,7.27
2023-03-05T09:28:39.966Z,7.28
2023-03-05T09:31:07.798Z,7.28
2023-03-05T09:33:35.800Z,7.33
2023-03-05T09:36:02.752Z,7.27
2023-03-05T09:38:29.828Z,7.24
2023-03-05T09:41:07.834Z,7.23
2023-03-05T09:43:59.454Z,7.23
2023-03-05T09:46:51.682Z,7.21
2023-03-05T09:49:50.920Z,7.25
2023-03-05T09:52:22.214Z,7.25
2023-03-05T09:54:53.049Z,7.27
2023-03-05T09:57:22.748Z,7.25
2023-03-05T09:59:56.063Z,7.28
2023-03-05T10:02:23.948Z,7.30
2023-03-05T10:05:00.888Z,7.28
2023-03-05T10:07:28.845Z,7.29
2023-03-05T10:10:10.084Z,7.30
2023-03-05T10:12:46.522Z,7.31
2023-03-05T10:15:30.527Z,7.32
2023-03-05T10:18:16.872Z,7.33
2023-03-05T10:20:51.645Z,7.34
2023-03-05T10:23:26.988Z,7.38
2023-03-05T10:26:11.320Z,7.40
2023-03-05T10:28:50.004Z,7.38
2023-03-05T10:31:46.836Z,7.38
2023-03-05T10:34:27.988Z,7.36
2023-03-05T10:36:58.441Z,7.40
2023-03-05T10:40:10.957Z,7.46
2023-03-05T10:42:56.620Z,7.46
2023-03-05T10:45:26.715Z,7.46
2023-03-05T10:48:05.520Z,7.48
2023-03-05T10:50:36.254Z,7.45
2023-03-05T10:53:10.592Z,7.43
2023-03-05T10:55:37.377Z,7.46
2023-03-05T10:58:11.527Z,7.46
2023-03-05T11:00:38.344Z,7.54
2023-03-05T11:03:07.330Z,7.63
2023-03-05T11:05:42.637Z,7.68
2023-03-05T11:08:36.255Z,7.69
2023-03-05T11:11:10.464Z,7.67
2023-03-05T11:13:44.025Z,7.73
2023-03-05T11:16:21.228Z,7.70
2023-03-05T11:18:48.686Z,7.73
2023-03-05T11:21:19.820Z,7.75
2023-03-05T11:24:06.930Z,7.78
2023-03-05T11:26:33.725Z,7.78
2023-03-05T11:29:03.249Z,7.73
2023-03-05T11:31:31.684Z,7.75
2023-03-05T11:34:00.028Z,7.80
2023-03-05T11:36:37.165Z,7.79
2023-03-05T11:39:10.536Z,7.77
2023-03-05T11:41:38.460Z,7.80
2023-03-05T11:44:13.873Z,7.87
2023-03-05T11:46:47.101Z,7.86
2023-03-05T11:49:22.771Z,7.89
2023-03-05T11:51:55.608Z,7.93
2023-03-05T11:54:26.813Z,7.93
2023-03-05T11:56:53.645Z,7.95
2023-03-05T11:59:25.058Z,7.94
2023-03-05T12:01:53.449Z,7.97
2023-03-05T12:04:20.735Z,8.02
2023-03-05T12:06:55.074Z,8.03
2023-03-05T12:09:31.240Z,7.99
2023-03-05T12:12:06.888Z,8.05
2023-03-05T12:14:45.405Z,8.08
2023-03-05T12:17:21.229Z,8.12
2023-03-05T12:20:06.568Z,8.16
2023-03-05T12:22:40.892Z,8.30
2023-03-05T12:25:35.157Z,8.35
2023-03-05T12:28:02.190Z,8.39
2023-03-05T12:30:35.364Z,8.41
2023-03-05T12:33:03.636Z,8.43
2023-03-05T12:35:31.994Z,8.45
2023-03-05T12:38:48.187Z,8.51
2023-03-05T12:41:25.819Z,8.51
2023-03-05T12:44:05.639Z,8.58
2023-03-05T12:46:40.045Z,8.56
2023-03-05T12:49:19.220Z,8.60
2023-03-05T12:51:49.722Z,8.58
2023-03-05T12:54:32.825Z,8.67
2023-03-05T12:57:15.187Z,8.71
2023-03-05T12:59:48.767Z,8.73
2023-03-05T13:02:40.069Z,8.77
2023-03-05T13:05:27.323Z,8.66
2023-03-05T13:07:55.075Z,8.64
2023-03-05T13:10:27.386Z,8.65
2023-03-05T13:12:56.206Z,8.66
2023-03-05T13:15:23.904Z,8.60
2023-03-05T13:17:57.503Z,8.61
2023-03-05T13:20:39.450Z,8.65
2023-03-05T13:23:25.220Z,8.66
2023-03-05T13:25:59.174Z,8.62
2023-03-05T13:28:26.603Z,8.61
2023-03-05T13:30:55.158Z,8.61
2023-03-05T13:33:26.314Z,8.64
2023-03-05T13:35:54.138Z,8.67
2023-03-05T13:38:23.554Z,8.71
2023-03-05T13:41:06.517Z,8.77
2023-03-05T13:43:33.816Z,8.70
2023-03-05T13:46:03.893Z,8.67
2023-03-05T13:48:31.074Z,8.70
2023-03-05T13:50:58.235Z,8.68
2023-03-05T13:53:30.046Z,8.74
2023-03-05T13:55:58.592Z,8.67
2023-03-05T13:58:48.076Z,8.71
2023-03-05T14:01:21.076Z,8.75
2023-03-05T14:03:52.789Z,8.73
2023-03-05T14:06:20.958Z,8.65
2023-03-05T14:08:52.196Z,8.64
2023-03-05T14:11:19.095Z,8.68
2023-03-05T14:13:47.273Z,8.64
2023-03-05T14:16:15.090Z,8.70
2023-03-05T14:18:56.293Z,8.69
2023-03-05T14:21:23.441Z,8.63
2023-03-05T14:23:55.052Z,8.63
2023-03-05T14:26:30.600Z,8.69
2023-03-05T14:29:00.637Z,8.65
2023-03-05T14:31:28.601Z,8.61
2023-03-05T14:34:01.111Z,8.62
2023-03-05T14:36:29.177Z,8.66
2023-03-05T14:38:56.975Z,8.69
2023-03-05T14:41:40.762Z,8.68
2023-03-05T14:44:15.822Z,8.67
2023-03-05T14:46:43.041Z,8.77
2023-03-05T14:49:10.406Z,8.79
2023-03-05T14:51:42.781Z,8.79
2023-03-05T14:54:24.327Z,8.85
2023-03-05T14:56:51.277Z,8.82
2023-03-05T14:59:19.051Z,8.76
2023-03-05T15:01:45.909Z,8.73
2023-03-05T15:04:15.794Z,8.77
2023-03-05T15:06:45.371Z,8.77
2023-03-05T15:09:12.595Z,8.77
2023-03-05T15:11:39.508Z,8.74
2023-03-05T15:14:06.917Z,8.76
2023-03-05T15:16:34.591Z,8.64
2023-03-05T15:19:03.692Z,8.58
2023-03-05T15:21:30.590Z,8.60
2023-03-05T15:23:57.735Z,8.57
2023-03-05T15:26:24.649Z,8.60
2023-03-05T15:28:51.867Z,8.65
2023-03-05T15:31:18.790Z,8.67
2023-03-05T15:33:45.907Z,8.65
2023-03-05T15:36:13.713Z,8.68
2023-03-05T15:38:41.759Z,8.65
2023-03-05T15:41:08.701Z,8.61
2023-03-05T15:43:37.031Z,8.60
2023-03-05T15:46:05.884Z,8.59
2023-03-05T15:48:33.139Z,8.59
2023-03-05T15:51:00.008Z,8.57
2023-03-05T15:53:27.154Z,8.60
2023-03-05T15:55:54.060Z,8.62
2023-03-05T15:58:21.793Z,8.57
2023-03-05T16:00:49.143Z,8.58
2023-03-05T16:03:16.399Z,8.57
2023-03-05T16:05:43.342Z,8.56
2023-03-05T16:08:10.555Z,8.54
2023-03-05T16:10:39.558Z,8.52
2023-03-05T16:13:12.359Z,8.54
2023-03-05T16:15:39.820Z,8.54
2023-03-05T16:18:08.498Z,8.51
2023-03-05T16:20:36.392Z,8.45
2023-03-05T16:23:04.423Z,8.49
2023-03-05T16:25:31.462Z,8.48
2023-03-05T16:27:58.660Z,8.44
2023-03-05T16:30:25.594Z,8.43
2023-03-05T16:32:53.790Z,8.42
2023-03-05T16:35:20.876Z,8.40
2023-03-05T16:37:48.083Z,8.40
2023-03-05T16:40:15.347Z,8.36
2023-03-05T16:42:42.844Z,8.33
2023-03-05T16:45:10.651Z,8.32
2023-03-05T16:47:38.442Z,8.29
2023-03-05T16:50:06.154Z,8.29
2023-03-05T16:52:33.413Z,8.26
2023-03-05T16:55:00.405Z,8.25
2023-03-05T16:57:28.997Z,8.24
2023-03-05T16:59:56.422Z,8.22
2023-03-05T17:02:23.190Z,8.16
2023-03-05T17:04:50.771Z,8.18
2023-03-05T17:07:18.090Z,8.15
2023-03-05T17:09:46.421Z,8.09
2023-03-05T17:12:13.310Z,8.09
2023-03-05T17:14:40.594Z,8.07
2023-03-05T17:17:07.678Z,8.05
2023-03-05T17:19:34.925Z,8.09
2023-03-05T17:22:02.264Z,8.03
2023-03-05T17:24:30.440Z,8.07
2023-03-05T17:26:57.336Z,7.96
2023-03-05T17:29:24.897Z,7.97
2023-03-05T17:31:53.374Z,8.04
2023-03-05T17:34:33.316Z,7.96
2023-03-05T17:37:00.930Z,7.95
2023-03-05T17:39:28.131Z,7.99
2023-03-05T17:41:54.934Z,7.91
2023-03-05T17:44:22.089Z,7.91
2023-03-05T17:46:48.981Z,7.88
2023-03-05T17:49:16.127Z,7.94
2023-03-05T17:51:43.145Z,7.88
2023-03-05T17:54:10.458Z,7.89
2023-03-05T17:56:37.360Z,7.84
2023-03-05T17:59:04.504Z,7.85
2023-03-05T18:01:32.933Z,7.85
2023-03-05T18:04:00.387Z,7.85
2023-03-05T18:06:27.405Z,7.86
2023-03-05T18:08:54.564Z,7.83
2023-03-05T18:11:21.470Z,7.79
2023-03-05T18:13:48.720Z,7.76
2023-03-05T18:16:17.103Z,7.74
2023-03-05T18:18:44.630Z,7.75
2023-03-05T18:21:11.703Z,7.77
2023-03-05T18:23:38.942Z,7.76
2023-03-05T18:26:05.901Z,7.74
2023-03-05T18:28:33.280Z,7.76
2023-03-05T18:31:00.956Z,7.69
2023-03-05T18:33:28.168Z,7.69
2023-03-05T18:39:16.547Z,7.64
2023-03-05T18:41:43.422Z,7.63
2023-03-05T18:44:11.120Z,7.56
2023-03-05T18:46:38.093Z,7.61
2023-03-05T18:49:05.477Z,7.55
2023-03-05T18:51:32.556Z,7.55
2023-03-05T18:53:59.768Z,7.54
2023-03-05T18:56:26.674Z,7.56
2023-03-05T18:58:53.928Z,7.54
2023-03-05T19:01:20.884Z,7.53
2023-03-05T19:03:49.224Z,7.52
2023-03-05T19:06:17.778Z,7.50
2023-03-05T19:08:45.325Z,7.56
2023-03-05T19:11:20.057Z,7.58
2023-03-05T19:13:51.131Z,7.50
2023-03-05T19:16:27.817Z,7.49
2023-03-05T19:19:16.623Z,7.49
2023-03-05T19:21:45.640Z,7.47
2023-03-05T19:24:13.024Z,7.45
2023-03-05T19:26:39.962Z,7.45
2023-03-05T19:29:07.411Z,7.38
2023-03-05T19:31:34.447Z,7.38
2023-03-05T19:34:01.974Z,7.41
2023-03-05T19:36:29.623Z,7.40
2023-03-05T19:38:56.821Z,7.41
2023-03-05T19:41:24.138Z,7.36
2023-03-05T19:43:51.341Z,7.33
2023-03-05T19:46:18.453Z,7.34
2023-03-05T19:48:45.845Z,7.36
2023-03-05T19:51:19.779Z,7.35
2023-03-05T19:53:47.139Z,7.35
2023-03-05T19:56:16.376Z,7.31
2023-03-05T19:58:47.649Z,7.28
2023-03-05T20:01:16.580Z,7.30
2023-03-05T20:03:47.805Z,7.28
2023-03-05T20:06:14.881Z,7.29
2023-03-05T20:08:42.114Z,7.29
2023-03-05T20:11:10.422Z,7.29
2023-03-05T20:13:38.155Z,7.28
2023-03-05T20:16:06.169Z,7.28
2023-03-05T20:18:33.723Z,7.28
2023-03-05T20:21:02.826Z,7.28
2023-03-05T20:23:30.236Z,7.25
2023-03-05T20:25:57.236Z,7.20
2023-03-05T20:28:26.381Z,7.21
2023-03-05T20:30:57.831Z,7.22
2023-03-05T20:33:25.353Z,7.23
2023-03-05T20:35:53.501Z,7.20
2023-03-05T20:38:21.657Z,7.18
2023-03-05T20:40:56.037Z,7.17
2023-03-05T20:43:23.477Z,7.17
2023-03-05T20:45:50.552Z,7.18
2023-03-05T20:48:17.686Z,7.21
2023-03-05T20:50:46.756Z,7.16
2023-03-05T20:53:14.364Z,7.20
2023-03-05T20:55:41.844Z,7.18
2023-03-05T20:58:09.228Z,7.18
2023-03-05T21:00:36.431Z,7.18
2023-03-05T21:03:03.657Z,7.15
2023-03-05T21:05:30.489Z,7.14
2023-03-05T21:07:58.513Z,7.15
2023-03-05T21:10:25.578Z,7.15
2023-03-05T21:12:52.984Z,7.14
2023-03-05T21:15:22.338Z,7.11
2023-03-05T21:17:50.559Z,7.14
2023-03-05T21:20:20.224Z,7.15
2023-03-05T21:22:47.357Z,7.13
2023-03-05T21:25:24.853Z,7.15
2023-03-05T21:27:55.481Z,7.13
2023-03-05T21:30:22.494Z,7.12
2023-03-05T21:32:49.903Z,7.12
2023-03-05T21:35:21.230Z,7.13
2023-03-05T21:37:48.449Z,7.13
2023-03-05T21:40:16.942Z,7.13
2023-03-05T21:42:44.232Z,7.13
2023-03-05T21:45:13.401Z,7.12
2023-03-05T21:47:40.386Z,7.11
2023-03-05T21:50:08.027Z,7.09
2023-03-05T21:52:34.938Z,7.09
2023-03-05T21:55:02.146Z,7.08
2023-03-05T21:57:29.314Z,7.11
2023-03-05T21:59:56.915Z,7.08
2023-03-05T22:02:24.086Z,7.05
2023-03-05T22:04:51.401Z,7.06
2023-03-05T22:07:18.631Z,7.08
2023-03-05T22:09:46.098Z,7.08
2023-03-05T22:13:11.400Z,7.02
2023-03-05T22:15:57.539Z,7.04
2023-03-05T22:18:29.094Z,7.04
2023-03-05T22:20:56.571Z,7.02
2023-03-05T22:23:24.466Z,7.02
2023-03-05T22:26:02.758Z,7.02
2023-03-05T22:28:29.631Z,7.04
2023-03-05T22:30:56.784Z,7.04
2023-03-05T22:33:23.659Z,7.01
2023-03-05T22:35:50.883Z,7.03
2023-03-05T22:38:17.752Z,7.01
2023-03-05T22:40:46.237Z,7.02
2023-03-05T22:43:13.736Z,7.02
2023-03-05T22:45:40.919Z,6.99
2023-03-05T22:48:09.857Z,6.97
2023-03-05T22:50:40.767Z,7.01
2023-03-05T22:53:07.692Z,7.05
2023-03-05T22:55:34.905Z,7.02
2023-03-05T22:58:01.663Z,7.01
2023-03-05T23:00:28.730Z,6.98
2023-03-05T23:02:55.636Z,7.01
2023-03-05T23:05:22.779Z,6.99
2023-03-05T23:07:49.799Z,7.01
2023-03-05T23:10:26.969Z,6.97
2023-03-05T23:12:54.667Z,6.97
2023-03-05T23:15:26.852Z,6.99
2023-03-05T23:17:53.615Z,6.98
2023-03-05T23:20:22.791Z,6.95
2023-03-05T23:22:49.690Z,6.97
2023-03-05T23:25:16.834Z,6.93
2023-03-05T23:27:43.805Z,6.97
2023-03-05T23:30:17.426Z,6.98
2023-03-05T23:32:46.155Z,6.96
2023-03-05T23:35:13.862Z,6.93
2023-03-05T23:37:41.218Z,6.90
2023-03-05T23:40:09.851Z,6.99
2023-03-05T23:42:38.201Z,6.97
2023-03-05T23:45:10.073Z,6.93
2023-03-05T23:47:37.172Z,6.92
2023-03-05T23:50:05.813Z,6.91
2023-03-05T23:52:33.070Z,6.90
2023-03-05T23:55:00.223Z,6.88
2023-03-05T23:57:27.258Z,6.92
2023-03-05T23:59:54.541Z,6.93
